createdAt,value
2022-12-12T00:01:40.204Z,94066.13
2022-12-12T00:04:08.064Z,94050.94
2022-12-12T00:06:37.599Z,94054.03
2022-12-12T00:09:05.711Z,94060.94
2022-12-12T00:11:33.571Z,94064.06
2022-12-12T00:14:01.465Z,94065.00
2022-12-12T00:16:29.386Z,94078.78
2022-12-12T00:18:57.221Z,94068.56
2022-12-12T00:21:28.132Z,94087.38
2022-12-12T00:23:58.268Z,94092.19
2022-12-12T00:26:27.799Z,94070.41
2022-12-12T00:28:56.392Z,94078.47
2022-12-12T00:31:24.372Z,94105.16
2022-12-12T00:33:52.353Z,94089.94
2022-12-12T00:36:22.850Z,94119.09
2022-12-12T00:38:51.271Z,94109.66
2022-12-12T00:41:22.096Z,94099.34
2022-12-12T00:43:50.167Z,94102.16
2022-12-12T00:46:19.331Z,94027.00
2022-12-12T00:48:47.501Z,94091.06
2022-12-12T00:51:18.776Z,94083.41
2022-12-12T00:53:48.752Z,94098.56
2022-12-12T00:56:17.333Z,94100.94
2022-12-12T00:58:46.578Z,94105.34
2022-12-12T01:01:17.019Z,94116.16
2022-12-12T01:03:45.040Z,94050.78
2022-12-12T01:06:13.519Z,94107.50
2022-12-12T01:08:41.828Z,94115.81
2022-12-12T01:11:11.303Z,94122.25
2022-12-12T01:13:40.067Z,94119.09
2022-12-12T01:16:10.011Z,94112.06
2022-12-12T01:18:38.690Z,94098.56
2022-12-12T01:21:09.657Z,94115.69
2022-12-12T01:23:37.887Z,94092.63
2022-12-12T01:26:08.204Z,94110.47
2022-12-12T01:28:36.562Z,94116.09
2022-12-12T01:31:04.848Z,94122.53
2022-12-12T01:33:34.213Z,94121.13
2022-12-12T01:36:02.066Z,94108.75
2022-12-12T01:38:29.879Z,94127.56
2022-12-12T01:40:57.927Z,94097.31
2022-12-12T01:43:30.172Z,94125.53
2022-12-12T01:46:34.132Z,94130.69
2022-12-12T01:49:08.191Z,94146.38
2022-12-12T01:51:36.171Z,94138.69
2022-12-12T01:54:07.226Z,94091.06
2022-12-12T01:56:36.827Z,94144.19
2022-12-12T01:59:08.542Z,94131.00
2022-12-12T02:01:37.261Z,94134.78
2022-12-12T02:04:08.750Z,94110.34
2022-12-12T02:06:36.880Z,94127.41
2022-12-12T02:09:07.517Z,94129.13
2022-12-12T02:11:42.419Z,94156.06
2022-12-12T02:14:10.367Z,94143.97
2022-12-12T02:16:55.594Z,94149.88
2022-12-12T02:20:08.612Z,94171.34
2022-12-12T02:23:00.886Z,94163.50
2022-12-12T02:25:46.109Z,94162.28
2022-12-12T02:28:42.073Z,94132.63
2022-12-12T02:31:17.061Z,94161.81
2022-12-12T02:33:56.633Z,94161.34
2022-12-12T02:36:35.793Z,94175.28
2022-12-12T02:39:11.917Z,94163.88
2022-12-12T02:41:44.338Z,94147.56
2022-12-12T02:44:19.971Z,94153.19
2022-12-12T02:46:55.799Z,94162.59
2022-12-12T02:49:29.383Z,94154.56
2022-12-12T02:52:00.320Z,94150.97
2022-12-12T02:54:28.319Z,94133.34
2022-12-12T02:56:58.759Z,94147.00
2022-12-12T02:59:30.419Z,94118.91
2022-12-12T03:02:30.675Z,94149.38
2022-12-12T03:05:32.323Z,94154.44
2022-12-12T03:08:10.972Z,94118.22
2022-12-12T03:10:51.504Z,94142.53
2022-12-12T03:13:29.363Z,94155.84
2022-12-12T03:16:09.545Z,94145.19
2022-12-12T03:18:47.674Z,94145.19
2022-12-12T03:21:20.547Z,94154.56
2022-12-12T03:23:52.932Z,94151.44
2022-12-12T03:26:26.549Z,94124.31
2022-12-12T03:29:00.332Z,94145.28
2022-12-12T03:31:33.153Z,94143.41
2022-12-12T03:34:05.889Z,94152.13
2022-12-12T03:36:38.441Z,94133.25
2022-12-12T03:39:10.383Z,94166.00
2022-12-12T03:41:44.564Z,94149.00
2022-12-12T03:44:17.960Z,94146.66
2022-12-12T03:46:53.298Z,94188.41
2022-12-12T03:49:27.258Z,94188.13
2022-12-12T03:52:03.004Z,94137.22
2022-12-12T03:54:36.428Z,94177.72
2022-12-12T03:57:11.204Z,94186.19
2022-12-12T03:59:43.606Z,94190.09
2022-12-12T04:02:17.882Z,94195.22
2022-12-12T04:04:53.610Z,94193.81
2022-12-12T04:07:26.346Z,94192.44
2022-12-12T04:10:11.841Z,94108.72
2022-12-12T04:13:03.723Z,94183.84
2022-12-12T04:15:58.495Z,94197.34
2022-12-12T04:18:33.615Z,94196.09
2022-12-12T04:21:32.189Z,94206.28
2022-12-12T04:24:08.687Z,94213.19
2022-12-12T04:26:42.819Z,94219.31
2022-12-12T04:29:20.839Z,94199.22
2022-12-12T04:31:54.661Z,94192.16
2022-12-12T04:34:29.378Z,94223.69
2022-12-12T04:36:58.948Z,94200.97
2022-12-12T04:39:28.702Z,94209.31
2022-12-12T04:41:58.571Z,94232.41
2022-12-12T04:44:30.474Z,94219.41
2022-12-12T04:47:02.457Z,94221.09
2022-12-12T04:49:34.212Z,94196.94
2022-12-12T04:52:06.609Z,94204.81
2022-12-12T04:54:42.593Z,94184.28
2022-12-12T04:57:16.455Z,94204.84
2022-12-12T04:59:45.354Z,94208.66
2022-12-12T05:02:21.482Z,94204.84
2022-12-12T05:04:57.314Z,94211.75
2022-12-12T05:07:39.430Z,94206.91
2022-12-12T05:10:11.904Z,94229.28
2022-12-12T05:12:45.197Z,94221.19
2022-12-12T05:15:14.237Z,94226.13
2022-12-12T05:17:45.862Z,94216.03
2022-12-12T05:20:14.381Z,94207.03
2022-12-12T05:22:43.628Z,94218.38
2022-12-12T05:25:12.208Z,94173.28
2022-12-12T05:27:40.283Z,94221.78
2022-12-12T05:30:09.450Z,94212.34
2022-12-12T05:32:37.271Z,94229.38
2022-12-12T05:35:06.089Z,94227.56
2022-12-12T05:37:33.972Z,94229.16
2022-12-12T05:40:03.261Z,94240.31
2022-12-12T05:42:31.096Z,94235.53
2022-12-12T05:44:58.985Z,94249.59
2022-12-12T05:47:26.952Z,94217.81
2022-12-12T05:49:55.173Z,94238.47
2022-12-12T05:52:23.048Z,94224.91
2022-12-12T05:54:51.425Z,94230.56
2022-12-12T05:57:20.847Z,94240.72
2022-12-12T05:59:48.987Z,94232.06
2022-12-12T06:02:17.834Z,94212.75
2022-12-12T06:04:45.821Z,94248.25
2022-12-12T06:07:13.665Z,94245.31
2022-12-12T06:09:41.488Z,94252.53
2022-12-12T06:12:09.392Z,94237.19
2022-12-12T06:14:38.639Z,94238.88
2022-12-12T06:17:06.498Z,94263.78
2022-12-12T06:19:34.426Z,94252.06
2022-12-12T06:22:02.345Z,94273.47
2022-12-12T06:24:30.299Z,94271.13
2022-12-12T06:26:59.924Z,94274.41
2022-12-12T06:29:27.782Z,94272.41
2022-12-12T06:31:57.075Z,94258.25
2022-12-12T06:34:25.005Z,94292.59
2022-12-12T06:36:52.907Z,94277.81
2022-12-12T06:39:20.797Z,94280.78
2022-12-12T06:41:48.703Z,94302.84
2022-12-12T06:44:16.565Z,94300.06
2022-12-12T06:46:44.555Z,94284.34
2022-12-12T06:49:13.824Z,94302.72
2022-12-12T06:51:44.428Z,94294.19
2022-12-12T06:54:13.164Z,94300.44
2022-12-12T06:56:47.697Z,94298.59
2022-12-12T06:59:16.971Z,94303.31
2022-12-12T07:01:45.232Z,94306.78
2022-12-12T07:04:15.318Z,94311.00
2022-12-12T07:06:43.254Z,94321.25
2022-12-12T07:09:12.134Z,94316.41
2022-12-12T07:11:40.831Z,94306.66
2022-12-12T07:17:09.054Z,94329.47
2022-12-12T07:19:38.302Z,94319.47
2022-12-12T07:22:10.103Z,94320.09
2022-12-12T07:24:38.689Z,94335.34
2022-12-12T07:27:07.528Z,94299.50
2022-12-12T07:29:35.695Z,94337.03
2022-12-12T08:02:21.460Z,94387.88
2022-12-12T08:04:49.469Z,94341.28
2022-12-12T08:07:17.433Z,94396.09
2022-12-12T08:09:45.295Z,94365.63
2022-12-12T08:12:13.243Z,94357.78
2022-12-12T08:14:41.313Z,94405.34
2022-12-12T08:17:09.289Z,94411.78
2022-12-12T08:46:01.949Z,94411.22
2022-12-12T08:51:15.403Z,94406.94
2022-12-12T08:53:45.167Z,94399.06
2022-12-12T08:56:13.229Z,94395.34
2022-12-12T08:58:42.614Z,94406.66
2022-12-12T09:01:13.857Z,94410.63
2022-12-12T09:03:41.960Z,94355.88
2022-12-12T09:06:10.995Z,94397.44
2022-12-12T09:08:39.686Z,94387.06
2022-12-12T09:11:08.255Z,94397.56
2022-12-12T09:13:36.866Z,94394.88
2022-12-12T09:16:07.376Z,94381.25
2022-12-12T09:18:35.324Z,94383.72
2022-12-12T09:21:03.546Z,94389.69
2022-12-12T09:23:31.580Z,94403.97
2022-12-12T09:25:59.585Z,94399.34
2022-12-12T09:28:27.675Z,94391.78
2022-12-12T09:30:55.910Z,94392.56
2022-12-12T09:33:25.144Z,94386.03
2022-12-12T09:35:59.098Z,94353.06
2022-12-12T09:38:27.684Z,94323.00
2022-12-12T09:40:59.852Z,94330.28
2022-12-12T09:43:30.215Z,94386.31
2022-12-12T09:45:59.255Z,94384.16
2022-12-12T09:48:36.773Z,94379.31
2022-12-12T09:51:04.878Z,94370.81
2022-12-12T09:53:32.785Z,94364.00
2022-12-12T09:56:09.186Z,94322.19
2022-12-12T09:58:48.337Z,94372.38
2022-12-12T10:01:25.568Z,94363.88
2022-12-12T10:04:04.501Z,94379.09
2022-12-12T10:06:41.344Z,94365.03
2022-12-12T10:09:32.321Z,94355.88
2022-12-12T10:12:06.506Z,94365.13
2022-12-12T10:14:40.506Z,94364.41
2022-12-12T10:17:15.115Z,94328.47
2022-12-12T10:19:50.210Z,94344.38
2022-12-12T10:22:27.111Z,94345.94
2022-12-12T10:25:00.005Z,94370.03
2022-12-12T10:27:27.836Z,94336.59
2022-12-12T10:29:56.607Z,94362.63
2022-12-12T10:57:16.627Z,94327.47
2022-12-12T10:59:49.541Z,94303.38
2022-12-12T11:02:39.188Z,94326.13
2022-12-12T11:05:18.519Z,94314.22
2022-12-12T11:07:48.553Z,94310.66
2022-12-12T11:10:31.990Z,94322.72
2022-12-12T11:13:14.804Z,94276.25
2022-12-12T11:15:46.794Z,94324.72
2022-12-12T11:18:17.251Z,94326.91
2022-12-12T11:20:47.858Z,94304.31
2022-12-12T11:23:21.472Z,94326.13
2022-12-12T11:25:56.367Z,94317.84
2022-12-12T11:28:29.105Z,94310.00
2022-12-12T11:30:57.776Z,94312.25
2022-12-12T11:36:25.198Z,94276.78
2022-12-12T11:38:55.860Z,94279.16
2022-12-12T11:41:24.059Z,94270.88
2022-12-12T11:44:00.285Z,94304.28
2022-12-12T11:46:30.499Z,94277.47
2022-12-12T11:49:03.349Z,94277.25
2022-12-12T11:51:34.301Z,94294.25
2022-12-12T11:54:06.429Z,94232.81
2022-12-12T12:02:40.910Z,94255.97
2022-12-12T12:08:14.870Z,94256.97
2022-12-12T12:36:01.950Z,94210.00
2022-12-12T12:38:47.872Z,94214.06
2022-12-12T12:41:27.426Z,94207.72
2022-12-12T12:44:09.791Z,94251.69
2022-12-12T12:46:48.290Z,94250.91
2022-12-12T12:49:20.719Z,94241.88
2022-12-12T12:51:54.747Z,94192.69
2022-12-12T12:54:26.166Z,94235.63
2022-12-12T12:57:01.888Z,94185.25
2022-12-12T12:59:35.288Z,94234.84
2022-12-12T13:02:13.128Z,94206.56
2022-12-12T13:04:47.719Z,94244.91
2022-12-12T13:07:24.954Z,94216.41
2022-12-12T13:09:59.308Z,94241.66
2022-12-12T13:12:32.332Z,94222.13
2022-12-12T13:15:05.027Z,94244.34
2022-12-12T13:17:46.371Z,94170.59
2022-12-12T13:20:19.261Z,94236.72
2022-12-12T13:22:58.272Z,94234.63
2022-12-12T13:25:37.218Z,94247.81
2022-12-12T13:28:12.076Z,94214.84
2022-12-12T13:30:56.040Z,94231.16
2022-12-12T13:33:36.921Z,94229.34
2022-12-12T13:36:11.287Z,94245.69
2022-12-12T13:38:42.039Z,94233.72
2022-12-12T13:41:11.379Z,94217.22
2022-12-12T13:43:46.765Z,94258.53
2022-12-12T13:46:40.905Z,94257.75
2022-12-12T13:49:29.678Z,94258.09
2022-12-12T13:52:26.035Z,94191.50
2022-12-12T13:55:11.014Z,94243.34
2022-12-12T13:58:08.130Z,94273.25
2022-12-12T14:00:36.869Z,94271.00
2022-12-12T14:03:23.678Z,94265.84
2022-12-12T14:05:53.480Z,94274.13
2022-12-12T14:08:24.827Z,94243.03
2022-12-12T14:11:01.433Z,94215.81
2022-12-12T14:13:38.793Z,94278.06
2022-12-12T14:16:09.168Z,94283.66
2022-12-12T14:18:40.865Z,94268.66
2022-12-12T14:21:11.845Z,94282.09
2022-12-12T14:23:42.507Z,94280.91
2022-12-12T14:26:59.152Z,94278.06
2022-12-12T14:29:31.087Z,94287.50
2022-12-12T14:32:15.896Z,94266.38
2022-12-12T14:34:53.014Z,94240.41
2022-12-12T14:37:35.841Z,94214.44
2022-12-12T14:40:14.868Z,94249.13
2022-12-12T14:43:18.936Z,94281.31
2022-12-12T14:45:38.760Z,94265.34
2022-12-12T14:48:12.206Z,94266.03
2022-12-12T14:50:41.308Z,94259.63
2022-12-12T14:53:17.066Z,94251.16
2022-12-12T14:55:49.462Z,94256.56
2022-12-12T14:58:20.891Z,94268.50
2022-12-12T15:00:53.608Z,94259.69
2022-12-12T15:03:27.448Z,94244.97
2022-12-12T15:06:28.502Z,94210.59
2022-12-12T15:09:26.905Z,94229.03
2022-12-12T15:11:57.517Z,94235.84
2022-12-12T15:14:27.864Z,94257.94
2022-12-12T15:17:03.169Z,94258.13
2022-12-12T15:19:35.821Z,94237.44
2022-12-12T15:22:06.617Z,94266.47
2022-12-12T15:24:39.261Z,94224.44
2022-12-12T15:27:08.682Z,94284.13
2022-12-12T15:29:38.664Z,94266.75
2022-12-12T15:32:10.481Z,94267.09
2022-12-12T15:34:40.713Z,94261.25
2022-12-12T15:37:27.771Z,94274.44
2022-12-12T15:40:20.096Z,94271.44
2022-12-12T15:42:52.197Z,94201.34
2022-12-12T15:45:24.254Z,94253.78
2022-12-12T15:47:54.726Z,94265.03
2022-12-12T15:50:25.653Z,94243.19
2022-12-12T15:53:06.825Z,94258.19
2022-12-12T15:55:36.477Z,94261.91
2022-12-12T15:58:04.392Z,94281.16
2022-12-12T16:00:36.977Z,94221.97
2022-12-12T16:03:20.838Z,94299.03
2022-12-12T16:06:02.980Z,94289.97
2022-12-12T16:08:46.748Z,94301.91
2022-12-12T16:11:47.028Z,94316.44
2022-12-12T16:14:33.902Z,94227.56
2022-12-12T16:17:07.160Z,94274.28
2022-12-12T16:19:45.709Z,94311.31
2022-12-12T16:22:33.451Z,94346.94
2022-12-12T16:25:20.235Z,94344.91
2022-12-12T16:27:52.085Z,94344.75
2022-12-12T16:30:19.931Z,94343.19
2022-12-12T16:32:47.738Z,94341.94
2022-12-12T16:35:18.485Z,94356.84
2022-12-12T16:37:46.946Z,94368.44
2022-12-12T16:40:16.554Z,94365.47
2022-12-12T16:42:46.335Z,94373.31
2022-12-12T16:45:16.738Z,94360.88
2022-12-12T16:47:44.746Z,94373.63
2022-12-12T16:50:14.876Z,94362.81
2022-12-12T16:52:44.277Z,94372.50
2022-12-12T16:55:17.726Z,94311.09
2022-12-12T16:57:45.527Z,94376.06
2022-12-12T17:00:14.801Z,94384.69
2022-12-12T17:02:42.883Z,94385.66
2022-12-12T17:05:16.723Z,94408.84
2022-12-12T17:07:46.083Z,94419.69
2022-12-12T17:10:14.429Z,94414.50
2022-12-12T17:12:42.592Z,94393.13
2022-12-12T17:15:14.975Z,94418.03
2022-12-12T17:17:42.815Z,94417.41
2022-12-12T17:20:12.087Z,94414.53
2022-12-12T17:22:41.496Z,94440.59
2022-12-12T17:25:11.318Z,94429.41
2022-12-12T17:27:39.413Z,94447.38
2022-12-12T17:30:09.434Z,94453.16
2022-12-12T17:32:38.258Z,94459.31
2022-12-12T17:35:07.160Z,94466.16
2022-12-12T17:37:35.813Z,94464.25
2022-12-12T17:40:04.809Z,94474.78
2022-12-12T17:42:34.466Z,94468.38
2022-12-12T17:45:02.356Z,94478.13
2022-12-12T17:47:30.190Z,94482.56
2022-12-12T17:49:58.005Z,94473.69
2022-12-12T17:52:25.879Z,94493.25
2022-12-12T17:55:53.746Z,94483.31
2022-12-12T17:57:43.211Z,94494.13
2022-12-12T18:00:12.684Z,94492.72
2022-12-12T18:02:41.424Z,94506.06
2022-12-12T18:05:10.787Z,94518.03
2022-12-12T18:07:38.657Z,94519.94
2022-12-12T18:10:07.432Z,94525.31
2022-12-12T18:12:35.313Z,94538.25
2022-12-12T18:15:05.256Z,94532.38
2022-12-12T18:17:33.066Z,94542.38
2022-12-12T18:20:00.904Z,94552.44
2022-12-12T18:22:28.774Z,94556.16
2022-12-12T18:24:56.647Z,94566.56
2022-12-12T18:27:24.484Z,94565.84
2022-12-12T18:29:52.510Z,94575.97
2022-12-12T18:32:21.748Z,94595.81
2022-12-12T18:34:49.626Z,94586.88
2022-12-12T18:37:17.814Z,94590.31
2022-12-12T18:39:45.769Z,94596.19
2022-12-12T18:42:13.621Z,94572.88
2022-12-12T18:44:41.505Z,94583.00
2022-12-12T18:47:09.631Z,94589.91
2022-12-12T18:49:39.105Z,94588.81
2022-12-12T18:52:06.953Z,94598.56
2022-12-12T18:54:34.829Z,94602.28
2022-12-12T18:57:02.698Z,94592.44
2022-12-12T18:59:30.550Z,94602.63
2022-12-12T19:01:58.432Z,94599.13
2022-12-12T19:04:26.361Z,94607.00
2022-12-12T19:06:55.602Z,94599.28
2022-12-12T19:09:23.670Z,94592.31
2022-12-12T19:11:58.335Z,94585.44
2022-12-12T19:14:40.355Z,94597.06
2022-12-12T19:17:22.111Z,94575.81
2022-12-12T19:19:53.882Z,94584.28
2022-12-12T19:25:11.021Z,94590.81
2022-12-12T19:27:38.840Z,94582.34
2022-12-12T19:30:07.936Z,94583.16
2022-12-12T19:32:35.927Z,94583.16
2022-12-12T19:35:06.147Z,94573.03
2022-12-12T19:37:37.219Z,94580.38
2022-12-12T19:40:05.867Z,94588.56
2022-12-12T19:42:33.729Z,94582.97
2022-12-12T19:45:01.709Z,94580.13
2022-12-12T19:47:29.570Z,94583.47
2022-12-12T19:49:57.432Z,94580.22
2022-12-12T19:52:25.475Z,94580.72
2022-12-12T19:54:56.037Z,94582.81
2022-12-12T19:57:26.326Z,94574.34
2022-12-12T19:59:54.324Z,94580.22
2022-12-12T20:02:22.294Z,94593.00
2022-12-12T20:04:50.228Z,94590.84
2022-12-12T20:07:18.088Z,94600.47
2022-12-12T20:09:45.934Z,94607.72
2022-12-12T20:12:15.393Z,94615.19
2022-12-12T20:14:43.239Z,94614.41
2022-12-12T20:17:11.630Z,94621.88
2022-12-12T20:19:39.877Z,94632.97
2022-12-12T20:22:08.015Z,94627.66
2022-12-12T20:24:37.453Z,94633.63
2022-12-12T20:27:05.647Z,94631.84
2022-12-12T20:29:35.825Z,94640.75
2022-12-12T20:32:04.469Z,94648.38
2022-12-12T20:34:32.314Z,94650.84
2022-12-12T20:37:00.168Z,94661.53
2022-12-12T20:39:28.372Z,94657.53
2022-12-12T20:41:57.596Z,94659.72
2022-12-12T20:44:25.991Z,94668.81
2022-12-12T20:46:55.649Z,94667.38
2022-12-12T20:49:24.807Z,94660.94
2022-12-12T20:51:56.340Z,94657.22
2022-12-12T20:54:25.655Z,94658.28
2022-12-12T20:56:54.099Z,94664.88
2022-12-12T20:59:22.000Z,94664.59
2022-12-12T21:01:49.887Z,94666.19
2022-12-12T21:04:19.240Z,94671.78
2022-12-12T21:06:49.599Z,94680.78
2022-12-12T21:09:23.793Z,94678.63
2022-12-12T21:11:53.744Z,94684.75
2022-12-12T21:14:21.866Z,94677.84
2022-12-12T21:16:49.778Z,94678.94
2022-12-12T21:19:20.912Z,94683.44
2022-12-12T21:21:49.054Z,94690.59
2022-12-12T21:24:18.601Z,94700.13
2022-12-12T21:26:47.392Z,94718.69
2022-12-12T21:29:17.163Z,94694.84
2022-12-12T21:31:51.129Z,94702.78
2022-12-12T21:34:22.050Z,94702.78
2022-12-12T21:36:52.382Z,94709.94
2022-12-12T21:39:20.403Z,94709.72
2022-12-12T21:41:48.218Z,94709.94
2022-12-12T21:44:16.044Z,94710.25
2022-12-12T21:46:44.288Z,94718.25
2022-12-12T21:49:26.663Z,94726.19
2022-12-12T21:51:57.972Z,94727.56
2022-12-12T21:54:26.918Z,94724.38
2022-12-12T21:56:55.998Z,94722.50
2022-12-12T21:59:25.631Z,94728.09
2022-12-12T22:01:55.593Z,94729.34
2022-12-12T22:04:23.834Z,94724.91
2022-12-12T22:06:51.687Z,94722.84
2022-12-12T22:09:20.872Z,94718.69
2022-12-12T22:11:50.758Z,94727.44
2022-12-12T22:14:21.020Z,94724.53
2022-12-12T22:16:48.993Z,94735.94
2022-12-12T22:19:17.981Z,94721.72
2022-12-12T22:21:47.523Z,94738.38
2022-12-12T22:24:15.893Z,94717.50
2022-12-12T22:26:46.631Z,94724.63
2022-12-12T22:29:16.204Z,94723.31
2022-12-12T22:31:45.870Z,94724.41
2022-12-12T22:34:17.697Z,94725.28
2022-12-12T22:36:46.641Z,94738.78
2022-12-12T22:39:17.246Z,94730.72
2022-12-12T22:41:47.246Z,94741.63
2022-12-12T22:44:17.036Z,94742.69
2022-12-12T22:46:48.090Z,94745.97
2022-12-12T22:49:18.065Z,94743.91
2022-12-12T22:51:47.207Z,94745.53
2022-12-12T22:54:15.411Z,94746.56
2022-12-12T22:56:43.573Z,94748.75
2022-12-12T22:59:14.218Z,94754.38
2022-12-12T23:01:42.439Z,94753.06
2022-12-12T23:04:12.648Z,94755.78
2022-12-12T23:06:40.671Z,94762.91
2022-12-12T23:09:10.302Z,94765.56
2022-12-12T23:11:38.234Z,94771.16
2022-12-12T23:14:07.860Z,94764.78
2022-12-12T23:16:37.619Z,94750.81
2022-12-12T23:19:07.240Z,94774.03
2022-12-12T23:21:36.598Z,94762.66
2022-12-12T23:24:05.089Z,94773.75
2022-12-12T23:26:34.305Z,94768.50
2022-12-12T23:29:02.196Z,94769.56
2022-12-12T23:31:33.002Z,94765.38
2022-12-12T23:34:03.904Z,94767.44
2022-12-12T23:36:32.371Z,94756.63
2022-12-12T23:39:01.800Z,94771.09
2022-12-12T23:41:30.510Z,94766.59
2022-12-12T23:43:58.762Z,94780.09
2022-12-12T23:46:31.832Z,94776.09
2022-12-12T23:49:03.339Z,94771.09
2022-12-12T23:51:33.530Z,94793.81
2022-12-12T23:54:03.086Z,94784.28
2022-12-12T23:56:31.830Z,94800.69
2022-12-12T23:59:01.067Z,94792.75
